Time;durP1;ratioP1;P1;durP2;ratioP2;P2;SDS_P1;SDS_P2;PMS_P1;PMS_P2;Temp;Humidity;BMP_temperature;BMP_pressure;BME280_temperature;BME280_humidity;BME280_pressure;Samples;Min_cycle;Max_cycle;Signal;HPM_P1;HPM_P2
2022/06/29 05:08:23;;;;;;;3.38;2.20;;;;;;;17.22;63.75;101518.03;5054948;27;115200;-35
2022/06/29 05:10:48;;;;;;;3.30;2.22;;;;;;;17.24;64.31;101507.84;5056053;27;98056;-35
2022/06/29 05:13:13;;;;;;;3.15;2.03;;;;;;;17.27;64.28;101506.72;5056447;27;97796;-35
2022/06/29 05:15:39;;;;;;;4.80;2.47;;;;;;;17.32;64.40;101505.34;5056495;27;96790;-35
2022/06/29 05:18:04;;;;;;;4.55;2.33;;;;;;;17.40;63.97;101497.41;5056232;27;96733;-35
2022/06/29 05:20:30;;;;;;;4.55;2.45;;;;;;;17.39;63.32;101489.31;5055910;27;99281;-35
2022/06/29 05:22:55;;;;;;;3.05;2.28;;;;;;;17.48;64.48;101493.19;5056218;27;98081;-35
2022/06/29 05:25:21;;;;;;;4.75;2.47;;;;;;;17.50;63.57;101486.59;5056532;27;96594;-35
2022/06/29 05:27:47;;;;;;;4.72;2.60;;;;;;;17.58;63.53;101478.59;5055282;27;96878;-35
2022/06/29 05:30:13;;;;;;;3.92;2.55;;;;;;;17.66;63.13;101482.59;5056028;27;98850;-35
2022/06/29 05:32:38;;;;;;;2.92;2.35;;;;;;;17.73;63.33;101481.97;5055772;27;97679;-35
2022/06/29 05:35:05;;;;;;;3.58;2.17;;;;;;;17.77;62.87;101472.50;5055577;27;96522;-35
2022/06/29 05:37:31;;;;;;;5.38;2.50;;;;;;;17.90;63.17;101477.00;5054724;27;96864;-35
2022/06/29 05:39:56;;;;;;;4.13;2.33;;;;;;;17.97;62.98;101478.22;5054464;27;100731;-35
2022/06/29 05:42:21;;;;;;;3.55;2.20;;;;;;;18.04;63.10;101472.13;5054469;27;97954;-35
2022/06/29 05:44:47;;;;;;;3.97;2.47;;;;;;;18.15;63.27;101476.69;5055972;27;96677;-35
2022/06/29 05:47:14;;;;;;;3.53;2.40;;;;;;;18.15;63.20;101467.63;5056442;27;96750;-35
2022/06/29 05:49:40;;;;;;;3.42;2.20;;;;;;;18.29;63.05;101481.03;5054135;27;100923;-35
2022/06/29 05:52:06;;;;;;;4.82;2.60;;;;;;;18.37;62.97;101477.63;5054676;27;101038;-35
2022/06/29 05:54:31;;;;;;;5.18;2.63;;;;;;;18.48;62.49;101476.75;5056008;27;96590;-35
2022/06/29 05:56:57;;;;;;;5.85;3.10;;;;;;;18.50;62.55;101470.13;5056191;27;96778;-35
2022/06/29 05:59:22;;;;;;;3.85;2.15;;;;;;;18.62;63.14;101482.78;5054265;27;97891;-35
2022/06/29 06:01:47;;;;;;;4.55;2.70;;;;;;;18.68;62.60;101474.00;5055130;27;98962;-35
2022/06/29 06:04:13;;;;;;;4.95;2.63;;;;;;;18.81;62.57;101482.13;5056034;27;96473;-35
2022/06/29 06:06:38;;;;;;;4.45;2.50;;;;;;;18.86;62.37;101476.22;5054729;27;101339;-35
2022/06/29 06:09:04;;;;;;;4.22;2.40;;;;;;;18.97;61.86;101470.66;5055561;27;97886;-35
2022/06/29 06:11:29;;;;;;;5.40;2.58;;;;;;;19.09;61.83;101480.59;5055400;27;97746;-35
2022/06/29 06:13:55;;;;;;;6.30;2.60;;;;;;;19.15;62.05;101479.16;5055517;27;96662;-35
2022/06/29 06:16:20;;;;;;;4.13;2.25;;;;;;;19.29;61.56;101481.56;5056254;27;96778;-35
2022/06/29 06:18:45;;;;;;;4.65;2.97;;;;;;;19.36;61.68;101467.31;5055724;27;97510;-35
2022/06/29 06:21:10;;;;;;;5.35;2.83;;;;;;;19.45;62.24;101464.59;5054966;27;104579;-35
2022/06/29 06:23:36;;;;;;;4.75;2.38;;;;;;;19.53;61.70;101464.75;5055034;27;96495;-35
2022/06/29 06:26:01;;;;;;;4.13;2.63;;;;;;;19.69;61.17;101477.19;5055474;27;96815;-35
2022/06/29 06:28:26;;;;;;;4.63;2.58;;;;;;;19.80;60.77;101479.81;5055135;27;97503;-35
2022/06/29 06:30:52;;;;;;;4.45;2.50;;;;;;;19.92;60.84;101481.44;5054975;27;97863;-35
2022/06/29 06:33:18;;;;;;;5.95;2.90;;;;;;;19.98;60.84;101477.28;5055167;27;96601;-35
2022/06/29 06:35:43;;;;;;;4.93;2.60;;;;;;;20.11;60.36;101482.50;5055333;27;96764;-35
2022/06/29 06:38:09;;;;;;;4.90;2.17;;;;;;;20.22;60.46;101479.66;5054986;27;98011;-35
2022/06/29 06:43:18;;;;;;;4.88;2.17;;;;;;;20.46;60.23;101478.38;5055637;27;96646;-35
2022/06/29 06:45:43;;;;;;;8.80;2.55;;;;;;;20.58;59.86;101482.75;5054139;27;112164;-35
2022/06/29 06:48:09;;;;;;;5.78;2.50;;;;;;;20.68;59.78;101480.88;5054566;27;97809;-35
2022/06/29 06:50:34;;;;;;;3.88;2.30;;;;;;;20.80;59.83;101487.09;5054785;27;97816;-35
2022/06/29 06:53:00;;;;;;;4.80;2.45;;;;;;;20.92;59.42;101487.81;5055443;27;96647;-35
2022/06/29 06:55:25;;;;;;;3.63;2.05;;;;;;;21.01;58.76;101475.94;5054844;27;96868;-35
2022/06/29 06:57:50;;;;;;;5.18;2.03;;;;;;;21.15;58.65;101475.47;5054442;27;99497;-35
2022/06/29 07:00:16;;;;;;;3.38;1.88;;;;;;;21.34;58.68;101473.69;5054610;27;98555;-35
2022/06/29 07:02:41;;;;;;;3.35;2.00;;;;;;;21.46;58.07;101466.13;5054943;27;96582;-35
2022/06/29 07:05:07;;;;;;;4.65;1.98;;;;;;;21.49;58.13;101466.69;5055364;27;96796;-35
2022/06/29 07:07:32;;;;;;;3.85;1.90;;;;;;;21.60;57.85;101473.94;5052606;27;100921;-35
2022/06/29 07:09:58;;;;;;;3.42;1.80;;;;;;;21.70;57.61;101465.59;5055748;27;100748;-35
2022/06/29 07:12:23;;;;;;;3.88;1.90;;;;;;;21.81;57.22;101473.69;5057964;27;96582;-35
2022/06/29 07:14:48;;;;;;;5.18;1.95;;;;;;;21.92;56.53;101478.97;5058346;27;96922;-35
2022/06/29 07:17:14;;;;;;;3.75;1.98;;;;;;;21.96;56.46;101458.34;5058291;27;96689;-35
2022/06/29 07:19:39;;;;;;;3.25;1.33;;;;;;;22.21;56.63;101462.28;5057950;27;105959;-35
2022/06/29 07:22:05;;;;;;;4.13;2.00;;;;;;;22.31;56.41;101461.34;5058353;27;97791;-35
2022/06/29 07:24:31;;;;;;;3.80;1.55;;;;;;;22.42;56.14;101462.00;5058374;27;96795;-35
2022/06/29 07:26:56;;;;;;;3.40;1.80;;;;;;;22.60;56.07;101463.91;5058011;27;98067;-35
2022/06/29 07:29:23;;;;;;;3.65;2.15;;;;;;;22.71;56.09;101455.38;5058136;27;97818;-36
2022/06/29 07:31:48;;;;;;;2.75;1.67;;;;;;;22.81;56.07;101464.44;5056845;27;96776;-35
2022/06/29 07:34:13;;;;;;;3.97;2.38;;;;;;;22.87;55.16;101451.88;5058057;27;96976;-36
2022/06/29 07:36:39;;;;;;;2.58;1.63;;;;;;;22.95;54.79;101460.22;5057595;27;98353;-35
2022/06/29 07:39:04;;;;;;;3.50;1.65;;;;;;;23.06;55.10;101461.91;5057880;27;97256;-35
2022/06/29 07:41:30;;;;;;;3.55;1.75;;;;;;;23.04;54.51;101459.28;5058147;27;96908;-35
2022/06/29 07:43:55;;;;;;;2.13;1.45;;;;;;;23.20;54.33;101458.56;5058047;27;96763;-36
2022/06/29 07:46:21;;;;;;;3.70;1.90;;;;;;;23.24;51.30;101461.84;5057717;27;96927;-35
2022/06/29 07:48:46;;;;;;;5.28;1.70;;;;;;;23.28;53.97;101461.34;5057772;27;97777;-35
2022/06/29 07:51:11;;;;;;;2.65;1.58;;;;;;;23.39;52.62;101460.22;5075458;27;96913;-35
2022/06/29 07:53:37;;;;;;;3.42;1.60;;;;;;;23.43;53.58;101458.00;5064816;27;96793;-35
2022/06/29 07:56:02;;;;;;;3.22;1.65;;;;;;;23.57;53.36;101462.91;5057350;27;99398;-35
2022/06/29 07:58:28;;;;;;;3.17;1.35;;;;;;;23.69;52.90;101458.84;5057491;27;97174;-35
2022/06/29 08:00:53;;;;;;;2.95;1.70;;;;;;;23.85;52.98;101471.91;5057179;27;96694;-35
2022/06/29 08:03:20;;;;;;;5.38;1.50;;;;;;;23.98;52.63;101467.81;5057228;27;96739;-35
2022/06/29 08:05:46;;;;;;;3.10;1.27;;;;;;;24.00;51.38;101472.13;5057336;27;99637;-35
2022/06/29 08:08:12;;;;;;;2.92;1.40;;;;;;;23.94;50.85;101458.97;5056979;27;97203;-35
2022/06/29 08:10:37;;;;;;;2.05;1.33;;;;;;;23.94;51.66;101461.75;5056266;27;96645;-35
2022/06/29 08:13:02;;;;;;;3.38;1.40;;;;;;;23.90;51.59;101455.66;5057789;27;96879;-35
2022/06/29 08:15:29;;;;;;;3.22;1.23;;;;;;;24.08;51.38;101471.31;5057405;27;97891;-35
2022/06/29 08:17:55;;;;;;;2.13;1.05;;;;;;;24.26;51.45;101454.56;5056246;27;101338;-35
2022/06/29 08:20:21;;;;;;;2.67;1.08;;;;;;;24.38;50.84;101456.88;5056077;27;96578;-35
2022/06/29 08:22:46;;;;;;;3.78;1.20;;;;;;;24.41;50.36;101447.34;5056628;27;96776;-35
2022/06/29 08:25:12;;;;;;;3.67;1.35;;;;;;;24.58;49.65;101449.13;5056637;27;97989;-35
2022/06/29 08:27:38;;;;;;;2.17;1.20;;;;;;;24.68;50.08;101460.03;5055327;27;101510;-35
2022/06/29 08:30:05;;;;;;;3.13;1.20;;;;;;;24.77;48.79;101453.47;5057528;27;96441;-35
2022/06/29 08:32:30;;;;;;;1.92;1.27;;;;;;;24.93;49.42;101451.72;5055513;27;96894;-35
2022/06/29 08:34:59;;;;;;;1.42;1.10;;;;;;;25.00;47.52;101447.22;5056766;27;103089;-35
2022/06/29 08:37:26;;;;;;;4.80;1.30;;;;;;;24.98;47.76;101455.72;5055485;27;100912;-35
2022/06/29 08:39:51;;;;;;;1.42;1.08;;;;;;;25.10;46.86;101445.16;5057109;27;96583;-35
2022/06/29 08:42:21;;;;;;;3.80;1.15;;;;;;;25.16;46.16;101441.66;5057168;27;96984;-35
2022/06/29 08:44:47;;;;;;;2.60;1.20;;;;;;;25.35;47.82;101450.66;5055303;27;100906;-35
2022/06/29 08:47:12;;;;;;;3.13;1.35;;;;;;;25.61;47.91;101448.50;5055252;27;101280;-35
2022/06/29 08:49:39;;;;;;;2.17;1.30;;;;;;;25.89;46.82;101450.88;5056290;27;96554;-35
2022/06/29 08:52:06;;;;;;;2.33;1.33;;;;;;;26.04;47.34;101435.16;5057132;27;96807;-35
2022/06/29 08:54:35;;;;;;;1.85;1.10;;;;;;;26.12;47.01;101442.56;5055263;27;100754;-35
2022/06/29 08:57:03;;;;;;;1.10;0.90;;;;;;;26.21;46.13;101440.63;5055146;27;101025;-35
2022/06/29 08:59:29;;;;;;;1.67;0.95;;;;;;;26.15;45.92;101442.25;5055456;27;96510;-35
2022/06/29 09:01:54;;;;;;;4.60;1.10;;;;;;;26.14;46.35;101446.03;5056641;27;96820;-35
2022/06/29 09:04:20;;;;;;;1.13;0.98;;;;;;;26.30;46.91;101438.69;5056663;27;97942;-35
2022/06/29 09:06:51;;;;;;;2.42;1.15;;;;;;;26.37;47.16;101445.22;5056571;27;97260;-36
2022/06/29 09:09:16;;;;;;;4.35;1.50;;;;;;;26.47;46.74;101440.28;5056888;27;96539;-35
2022/06/29 09:11:43;;;;;;;2.22;1.10;;;;;;;26.43;45.74;101433.34;5056139;27;108537;-35
2022/06/29 09:14:13;;;;;;;3.28;1.30;;;;;;;26.42;45.56;101437.19;5055876;27;97908;-35
2022/06/29 09:17:00;;;;;;;2.20;1.15;;;;;;;26.45;44.58;101425.72;5056146;27;99143;-35
2022/06/29 09:19:42;;;;;;;4.18;1.10;;;;;;;26.47;42.95;101437.50;5056569;27;96741;-35
2022/06/29 09:22:08;;;;;;;2.17;1.00;;;;;;;26.63;45.21;101429.09;5055244;27;96878;-35
2022/06/29 09:24:33;;;;;;;4.72;1.23;;;;;;;26.93;45.14;101425.53;5056522;27;97517;-35
2022/06/29 09:27:02;;;;;;;1.75;0.77;;;;;;;27.11;43.65;101435.25;5056276;27;98021;-35
2022/06/29 09:29:33;;;;;;;1.90;1.10;;;;;;;27.10;43.95;101427.97;5054885;27;96666;-35
2022/06/29 09:32:04;;;;;;;2.47;0.82;;;;;;;27.16;43.35;101431.03;5055335;27;96879;-35
2022/06/29 09:34:44;;;;;;;1.83;0.90;;;;;;;27.31;43.53;101434.72;5054196;27;100968;-35
2022/06/29 09:37:12;;;;;;;6.15;1.23;;;;;;;27.39;42.93;101423.53;5055769;27;99410;-35
2022/06/29 09:39:42;;;;;;;1.10;0.98;;;;;;;27.50;43.69;101430.50;5054414;27;96692;-35
2022/06/29 09:42:11;;;;;;;2.17;1.17;;;;;;;27.47;42.22;101428.13;5054766;27;96875;-35
2022/06/29 09:44:36;;;;;;;2.03;1.00;;;;;;;27.30;43.73;101431.09;5054429;27;101150;-36
2022/06/29 09:47:08;;;;;;;2.75;1.10;;;;;;;27.40;42.48;101425.25;5055848;27;97778;-35
2022/06/29 09:49:36;;;;;;;1.50;1.00;;;;;;;27.51;42.10;101440.59;5055700;27;96806;-35
2022/06/29 09:52:04;;;;;;;1.70;0.93;;;;;;;27.46;41.53;101420.81;5054553;27;96955;-35
2022/06/29 09:54:45;;;;;;;1.27;0.90;;;;;;;27.58;41.80;101437.91;5054202;27;102252;-35
2022/06/29 09:57:12;;;;;;;5.00;1.40;;;;;;;27.64;42.58;101432.44;5054395;27;98796;-36
2022/06/29 10:02:34;;;;;;;1.65;0.98;;;;;;;27.80;42.60;101416.59;5056329;27;96638;-35
2022/06/29 10:05:05;;;;;;;1.42;1.13;;;;;;;27.82;39.61;101423.69;5054863;27;99293;-35
2022/06/29 10:07:33;;;;;;;5.47;1.20;;;;;;;27.91;41.16;101419.78;5055224;27;97888;-36
2022/06/29 10:09:59;;;;;;;2.10;1.20;;;;;;;28.15;41.75;101429.72;5054431;27;96588;-35
2022/06/29 10:15:47;;;;;;;1.02;0.75;;;;;;;28.04;40.43;101427.41;5055701;27;97016;-35
2022/06/29 10:18:12;;;;;;;2.47;1.15;;;;;;;27.98;40.04;101427.34;5055315;27;97919;-35
2022/06/29 10:20:48;;;;;;;2.20;1.03;;;;;;;28.10;40.24;101420.19;5055678;27;96570;-36
2022/06/29 10:23:49;;;;;;;2.13;1.00;;;;;;;28.19;39.80;101419.03;5054545;27;96626;-35
2022/06/29 10:26:35;;;;;;;4.05;1.38;;;;;;;28.11;38.89;101417.22;5055200;27;98303;-35
2022/06/29 10:29:09;;;;;;;2.28;0.98;;;;;;;27.84;39.88;101417.94;5053901;27;101380;-35
2022/06/29 10:31:56;;;;;;;1.75;1.13;;;;;;;27.84;39.76;101415.16;5054940;27;96619;-35
2022/06/29 10:34:28;;;;;;;3.33;1.48;;;;;;;28.18;40.78;101414.53;5053808;27;97015;-35
2022/06/29 10:37:02;;;;;;;1.33;0.93;;;;;;;28.22;39.26;101413.06;5054942;27;97535;-35
2022/06/29 10:39:50;;;;;;;1.92;1.20;;;;;;;28.38;40.16;101410.00;5055054;27;97862;-35
2022/06/29 10:45:09;;;;;;;2.35;1.20;;;;;;;28.47;39.80;101401.56;5054296;27;96513;-35
2022/06/29 10:47:35;;;;;;;1.98;1.38;;;;;;;28.57;39.91;101400.16;5053322;27;102952;-35
2022/06/29 10:50:17;;;;;;;3.17;1.48;;;;;;;28.47;37.39;101398.78;5055267;27;97827;-35
2022/06/29 10:52:44;;;;;;;;;;;;;;;28.48;38.16;101395.78;5055465;27;96561;-35
2022/06/29 10:55:11;;;;;;;1.50;1.00;;;;;;;28.49;40.03;101391.09;5053900;27;96830;-35
2022/06/29 10:57:38;;;;;;;3.08;1.25;;;;;;;28.78;39.93;101385.34;5052781;27;100910;-35
2022/06/29 11:00:10;;;;;;;3.05;1.20;;;;;;;28.78;39.96;101390.06;5053203;27;101139;-35
2022/06/29 11:02:36;;;;;;;3.92;1.45;;;;;;;28.50;40.66;101381.66;5055198;27;96562;-35
2022/06/29 11:05:03;;;;;;;3.42;1.63;;;;;;;28.29;41.39;101390.81;5053709;27;96873;-35
2022/06/29 11:12:57;;;;;;;1.55;1.17;;;;;;;28.13;41.49;101394.75;5052975;27;96561;-35
2022/06/29 11:15:39;;;;;;;3.22;1.50;;;;;;;28.29;40.14;101380.56;5053728;27;96918;-35
2022/06/29 11:18:05;;;;;;;1.30;1.10;;;;;;;28.29;40.51;101386.16;5053071;27;101119;-35
2022/06/29 11:20:30;;;;;;;2.90;1.48;;;;;;;28.55;40.49;101390.28;5052830;27;100970;-35
2022/06/29 11:22:56;;;;;;;2.85;1.30;;;;;;;28.43;39.45;101375.13;5054628;27;96531;-35
2022/06/29 11:25:22;;;;;;;4.70;1.35;;;;;;;28.66;40.09;101386.09;5054891;27;96789;-35
2022/06/29 11:27:48;;;;;;;2.20;1.25;;;;;;;28.54;39.44;101382.97;5054631;27;101720;-35
2022/06/29 11:30:20;;;;;;;1.52;0.88;;;;;;;28.42;40.01;101371.47;5054412;27;96902;-35
2022/06/29 11:32:46;;;;;;;4.90;1.40;;;;;;;28.46;40.18;101386.78;5052936;27;96828;-35
2022/06/29 11:35:30;;;;;;;1.60;1.10;;;;;;;28.60;37.16;101393.31;5053037;27;96988;-35
2022/06/29 11:38:01;;;;;;;2.20;1.33;;;;;;;28.49;38.51;101383.59;5052883;27;100724;-35
2022/06/29 11:40:41;;;;;;;3.00;0.98;;;;;;;28.58;40.01;101387.09;5053240;27;101087;-35
2022/06/29 11:43:10;;;;;;;1.70;1.02;;;;;;;28.64;40.47;101386.28;5053166;27;96757;-35
2022/06/29 11:45:44;;;;;;;1.05;0.90;;;;;;;28.48;39.52;101378.19;5052743;27;97042;-35
2022/06/29 11:48:31;;;;;;;4.20;1.40;;;;;;;28.19;38.48;101385.59;5052341;27;100757;-35
2022/06/29 11:50:58;;;;;;;0.82;0.80;;;;;;;28.28;39.92;101377.97;5052887;27;100826;-35
2022/06/29 11:53:52;;;;;;;2.08;1.00;;;;;;;28.09;38.99;101379.47;5052923;27;96676;-35
2022/06/29 11:56:21;;;;;;;1.83;1.05;;;;;;;28.12;39.79;101384.66;5054336;27;96804;-35
2022/06/29 11:58:51;;;;;;;8.13;1.45;;;;;;;28.15;39.22;101373.09;5055861;27;100890;-35
2022/06/29 12:01:18;;;;;;;3.13;1.25;;;;;;;28.16;39.62;101380.41;5058027;27;101100;-35
2022/06/29 12:03:55;;;;;;;1.55;0.95;;;;;;;28.15;37.26;101382.34;5076845;27;96763;-35
2022/06/29 12:06:23;;;;;;;1.63;0.88;;;;;;;28.34;39.71;101372.47;5078552;27;96451;-35
2022/06/29 12:08:50;;;;;;;1.98;1.05;;;;;;;28.40;37.79;101375.53;5072535;27;101023;-35
2022/06/29 12:11:16;;;;;;;1.83;0.98;;;;;;;28.34;38.99;101363.22;5077466;27;98927;-35
2022/06/29 12:13:42;;;;;;;5.57;1.15;;;;;;;28.53;39.01;101361.72;5077556;27;96669;-35
2022/06/29 12:16:08;;;;;;;1.90;1.00;;;;;;;28.67;38.70;101366.34;5077694;27;96798;-35
2022/06/29 12:18:34;;;;;;;2.47;1.20;;;;;;;28.73;38.11;101370.28;5075633;27;101075;-35
2022/06/29 12:20:59;;;;;;;5.03;0.77;;;;;;;28.44;38.76;101363.78;5057467;27;97842;-35
2022/06/29 12:23:24;;;;;;;3.28;0.90;;;;;;;28.24;37.61;101371.91;5058300;27;96770;-35
2022/06/29 12:25:50;;;;;;;2.67;1.15;;;;;;;28.28;39.15;101369.63;5055803;27;96917;-35
2022/06/29 12:28:15;;;;;;;1.98;1.08;;;;;;;28.30;37.09;101370.28;5055500;27;99133;-35
2022/06/29 12:30:42;;;;;;;2.90;0.98;;;;;;;28.37;38.63;101360.06;5055493;27;105191;-36
2022/06/29 12:33:09;;;;;;;2.55;1.10;;;;;;;28.62;39.42;101368.88;5057524;27;96858;-35
2022/06/29 12:35:37;;;;;;;1.08;0.85;;;;;;;28.73;40.08;101357.19;5056143;27;96944;-35
2022/06/29 12:38:03;;;;;;;1.27;0.98;;;;;;;28.93;36.58;101359.28;5053730;27;100574;-35
2022/06/29 12:40:29;;;;;;;3.22;1.30;;;;;;;28.95;38.63;101357.16;5063416;27;100745;-35
2022/06/29 12:42:55;;;;;;;2.35;1.08;;;;;;;29.02;38.87;101358.91;5076119;27;96676;-35
2022/06/29 12:45:20;;;;;;;2.85;1.02;;;;;;;29.25;38.92;101368.09;5056928;27;96905;-36
2022/06/29 12:47:47;;;;;;;3.28;1.15;;;;;;;29.06;38.83;101364.09;5054303;27;99372;-35
2022/06/29 12:50:13;;;;;;;1.48;0.85;;;;;;;29.22;38.47;101363.78;5054795;27;99326;-36
2022/06/29 12:52:42;;;;;;;1.13;0.80;;;;;;;28.97;37.91;101363.38;5055448;27;96639;-35
2022/06/29 12:55:10;;;;;;;3.08;1.20;;;;;;;28.94;37.75;101358.22;5072646;27;96799;-35
2022/06/29 12:57:36;;;;;;;1.50;1.02;;;;;;;29.04;38.03;101355.06;5063728;27;97431;-36
2022/06/29 13:00:02;;;;;;;2.75;0.90;;;;;;;28.91;38.30;101351.13;5056418;27;97774;-36
2022/06/29 13:02:29;;;;;;;3.83;1.17;;;;;;;29.10;38.61;101343.09;5055064;27;96589;-36
2022/06/29 13:04:55;;;;;;;3.08;1.20;;;;;;;28.86;38.27;101342.47;5071046;27;96869;-36
2022/06/29 13:07:24;;;;;;;3.28;1.23;;;;;;;28.93;37.24;101348.97;5053930;27;99570;-36
2022/06/29 13:09:49;;;;;;;2.38;1.23;;;;;;;29.05;39.10;101348.41;5055679;27;97932;-36
2022/06/29 13:12:14;;;;;;;1.40;0.85;;;;;;;29.11;38.77;101345.72;5056684;27;96620;-35
2022/06/29 13:14:40;;;;;;;3.78;1.00;;;;;;;29.15;38.74;101358.19;5059885;27;96947;-36
2022/06/29 13:17:05;;;;;;;2.08;1.10;;;;;;;29.09;37.91;101352.56;5056609;27;97478;-36
2022/06/29 13:19:30;;;;;;;2.13;0.90;;;;;;;29.19;38.81;101355.84;5056345;27;101590;-36
2022/06/29 13:21:56;;;;;;;3.55;1.05;;;;;;;29.13;38.10;101348.31;5056327;27;97854;-35
2022/06/29 13:24:39;;;;;;;2.83;1.17;;;;;;;29.13;38.23;101354.75;5056249;27;96809;-36
2022/06/29 13:27:05;;;;;;;3.45;1.10;;;;;;;29.14;37.52;101348.06;5066519;27;97836;-36
2022/06/29 13:29:30;;;;;;;6.43;1.40;;;;;;;29.02;38.59;101341.31;5076212;27;97791;-35
2022/06/29 13:31:56;;;;;;;2.47;1.02;;;;;;;29.05;38.36;101346.47;5075172;27;96713;-36
2022/06/29 13:34:21;;;;;;;2.95;1.23;;;;;;;29.10;37.54;101346.75;5076369;27;96859;-36
2022/06/29 13:36:47;;;;;;;2.80;1.15;;;;;;;29.09;38.15;101350.63;5074420;27;97418;-36
2022/06/29 13:39:13;;;;;;;3.03;1.20;;;;;;;29.24;38.51;101360.81;5073456;27;101185;-36
2022/06/29 13:41:39;;;;;;;2.95;0.93;;;;;;;29.07;39.25;101338.81;5074316;27;96840;-36
2022/06/29 13:44:04;;;;;;;4.82;1.02;;;;;;;29.07;39.51;101344.38;5076251;27;96783;-36
2022/06/29 13:46:29;;;;;;;1.83;0.90;;;;;;;28.94;39.60;101335.91;5075399;27;97928;-36
2022/06/29 13:48:55;;;;;;;4.78;1.10;;;;;;;28.70;40.30;101340.00;5075157;27;101567;-36
2022/06/29 13:51:21;;;;;;;1.52;0.80;;;;;;;28.35;40.37;101340.75;5075387;27;104809;-35
2022/06/29 13:53:46;;;;;;;4.85;1.00;;;;;;;28.50;40.14;101342.63;5076353;27;96917;-36
2022/06/29 13:56:11;;;;;;;2.00;1.00;;;;;;;28.56;39.95;101333.47;5076322;27;97892;-35
2022/06/29 13:58:37;;;;;;;3.45;1.35;;;;;;;28.57;39.66;101335.19;5076001;27;103933;-35
2022/06/29 14:01:02;;;;;;;4.53;1.02;;;;;;;28.60;39.53;101334.75;5076186;27;96696;-36
2022/06/29 14:03:27;;;;;;;1.67;0.98;;;;;;;28.56;39.83;101331.53;5076162;27;96804;-35
2022/06/29 14:05:53;;;;;;;2.13;1.00;;;;;;;28.52;40.32;101334.94;5076121;27;98057;-36
2022/06/29 14:08:19;;;;;;;4.18;0.88;;;;;;;28.58;40.13;101328.56;5074281;27;99886;-36
2022/06/29 14:10:45;;;;;;;2.67;1.17;;;;;;;28.52;39.90;101323.78;5074755;27;96787;-36
2022/06/29 14:13:11;;;;;;;2.38;1.02;;;;;;;28.52;39.82;101341.34;5074828;27;97221;-35
2022/06/29 14:15:36;;;;;;;1.33;0.88;;;;;;;28.52;37.50;101338.56;5074998;27;98073;-36
2022/06/29 14:18:01;;;;;;;1.30;1.00;;;;;;;28.47;39.54;101320.75;5075932;27;97762;-33
2022/06/29 14:20:27;;;;;;;2.05;0.93;;;;;;;28.58;39.71;101331.34;5074966;27;96692;-33
2022/06/29 14:22:52;;;;;;;2.85;1.17;;;;;;;28.62;39.71;101332.66;5076195;27;96771;-34
2022/06/29 14:25:18;;;;;;;2.17;0.95;;;;;;;28.61;39.03;101330.94;5075720;27;97899;-35
2022/06/29 14:27:43;;;;;;;2.95;0.93;;;;;;;28.60;39.37;101326.41;5075554;27;99318;-35
2022/06/29 14:30:10;;;;;;;1.65;0.98;;;;;;;28.61;39.82;101318.94;5075845;27;96734;-35
2022/06/29 14:32:36;;;;;;;3.28;1.40;;;;;;;28.58;39.97;101328.56;5074589;27;96909;-36
2022/06/29 14:35:01;;;;;;;2.80;0.95;;;;;;;28.50;40.21;101325.91;5075653;27;98239;-35
2022/06/29 14:37:26;;;;;;;3.78;1.30;;;;;;;28.49;39.92;101321.41;5075524;27;97731;-36
2022/06/29 14:39:52;;;;;;;1.40;0.90;;;;;;;28.48;39.63;101331.66;5075448;27;96506;-35
2022/06/29 14:42:19;;;;;;;2.50;1.17;;;;;;;28.22;37.60;101315.56;5075508;27;97352;-36
2022/06/29 14:44:44;;;;;;;3.42;1.38;;;;;;;28.21;39.86;101329.69;5074979;27;99302;-35
2022/06/29 14:47:10;;;;;;;4.90;1.20;;;;;;;28.20;38.34;101319.56;5075504;27;97348;-36
2022/06/29 14:49:35;;;;;;;2.72;1.20;;;;;;;28.25;39.60;101326.28;5075641;27;96644;-35
2022/06/29 14:52:00;;;;;;;2.38;0.90;;;;;;;28.26;39.49;101322.44;5075984;27;96834;-35
2022/06/29 14:54:26;;;;;;;2.78;1.10;;;;;;;28.18;39.45;101322.56;5075481;27;98159;-35
2022/06/29 14:56:51;;;;;;;5.53;1.33;;;;;;;28.15;39.65;101314.59;5075425;27;99126;-36
2022/06/29 14:59:16;;;;;;;3.05;1.02;;;;;;;28.01;38.89;101310.84;5075314;27;96651;-35
2022/06/29 15:01:42;;;;;;;2.65;1.17;;;;;;;28.04;39.89;101327.16;5075768;27;96727;-35
2022/06/29 15:04:07;;;;;;;1.10;0.88;;;;;;;28.02;39.23;101318.13;5074692;27;98255;-35
2022/06/29 15:06:33;;;;;;;2.00;1.20;;;;;;;28.09;39.98;101324.63;5075061;27;99055;-35
2022/06/29 15:08:58;;;;;;;2.92;1.08;;;;;;;28.06;39.60;101319.47;5075430;27;96776;-35
2022/06/29 15:11:24;;;;;;;1.90;0.90;;;;;;;27.93;37.68;101309.03;5075570;27;96767;-35
2022/06/29 15:13:49;;;;;;;1.75;1.00;;;;;;;27.88;39.34;101294.84;5074677;27;99285;-35
2022/06/29 15:16:15;;;;;;;1.60;0.85;;;;;;;27.82;38.44;101303.09;5075110;27;97393;-35
2022/06/29 15:18:57;;;;;;;5.15;1.20;;;;;;;27.89;39.53;101309.66;5075144;27;96637;-35
2022/06/29 15:21:27;;;;;;;1.88;0.98;;;;;;;27.88;39.60;101288.41;5075621;27;96753;-35
2022/06/29 15:23:52;;;;;;;3.22;1.20;;;;;;;27.83;39.44;101302.91;5073613;27;100997;-35
2022/06/29 15:26:30;;;;;;;3.08;1.00;;;;;;;27.83;39.21;101294.56;5074926;27;97332;-35
2022/06/29 15:28:55;;;;;;;4.68;1.27;;;;;;;27.92;39.90;101298.09;5074938;27;96813;-35
2022/06/29 15:31:20;;;;;;;3.33;1.17;;;;;;;27.89;40.47;101301.28;5076735;27;96840;-35
2022/06/29 15:39:13;;;;;;;1.27;0.90;;;;;;;27.89;39.47;101282.66;5078910;27;96517;-36
2022/06/29 15:41:39;;;;;;;4.65;1.40;;;;;;;27.86;40.20;101284.94;5078665;27;96805;-35
2022/06/29 15:44:04;;;;;;;1.35;0.88;;;;;;;27.83;40.07;101279.78;5077939;27;101881;-35
2022/06/29 15:46:29;;;;;;;3.95;1.00;;;;;;;27.87;39.24;101278.34;5078901;27;98891;-35
2022/06/29 15:49:04;;;;;;;6.60;1.33;;;;;;;27.86;40.02;101285.81;5078589;27;96530;-35
2022/06/29 15:51:29;;;;;;;1.75;1.00;;;;;;;27.84;39.63;101271.25;5078355;27;96828;-35
2022/06/29 15:56:38;;;;;;;4.75;1.33;;;;;;;27.75;39.92;101267.69;5078467;27;97132;-35
2022/06/29 15:59:07;;;;;;;2.05;1.13;;;;;;;27.69;39.77;101267.59;5078308;27;96572;-35
2022/06/29 16:01:32;;;;;;;0.82;0.60;;;;;;;27.60;38.77;101271.56;5076860;27;96937;-35
2022/06/29 16:03:59;;;;;;;2.20;0.90;;;;;;;27.54;39.75;101276.88;5077802;27;97863;-35
2022/06/29 16:06:25;;;;;;;4.30;1.15;;;;;;;27.57;39.99;101267.25;5076375;27;100873;-35
2022/06/29 16:08:52;;;;;;;1.77;0.95;;;;;;;27.47;40.17;101267.56;5076231;27;96675;-35
2022/06/29 16:11:18;;;;;;;3.42;0.98;;;;;;;27.52;39.61;101275.34;5078507;27;96857;-35
2022/06/29 16:13:43;;;;;;;6.22;0.80;;;;;;;27.57;40.55;101280.31;5077858;27;98012;-35
2022/06/29 16:16:08;;;;;;;2.20;0.90;;;;;;;27.60;39.65;101269.66;5077456;27;99110;-35
2022/06/29 16:18:34;;;;;;;1.10;0.65;;;;;;;27.39;38.91;101262.13;5077402;27;96569;-35
2022/06/29 16:20:59;;;;;;;2.15;0.90;;;;;;;27.39;38.38;101266.81;5078178;27;96774;-35
2022/06/29 16:23:25;;;;;;;3.83;1.17;;;;;;;27.22;37.54;101255.94;5077740;27;96777;-35
2022/06/29 16:25:50;;;;;;;1.65;0.80;;;;;;;27.20;39.13;101268.31;5077318;27;99164;-35
2022/06/29 16:28:16;;;;;;;2.35;0.80;;;;;;;27.18;39.49;101262.91;5078031;27;96711;-36
2022/06/29 16:30:42;;;;;;;3.90;0.90;;;;;;;27.29;39.76;101268.00;5077604;27;96824;-35
2022/06/29 16:33:07;;;;;;;4.30;1.20;;;;;;;27.31;39.75;101267.78;5077208;27;98039;-35
2022/06/29 16:35:32;;;;;;;1.70;1.08;;;;;;;27.27;40.21;101255.34;5077864;27;97809;-35
2022/06/29 16:37:58;;;;;;;2.03;0.98;;;;;;;27.29;40.59;101256.88;5077696;27;96665;-35
2022/06/29 16:40:23;;;;;;;5.10;1.33;;;;;;;27.26;40.85;101262.81;5077743;27;96808;-35
2022/06/29 16:42:48;;;;;;;3.38;1.20;;;;;;;27.14;41.63;101253.22;5076199;27;97932;-35
2022/06/29 16:45:14;;;;;;;4.68;1.08;;;;;;;27.15;41.43;101243.81;5077091;27;107286;-36
2022/06/29 16:47:39;;;;;;;2.40;1.10;;;;;;;27.10;41.96;101249.06;5077157;27;96655;-35
2022/06/29 16:50:05;;;;;;;3.63;0.88;;;;;;;26.98;42.02;101245.97;5077308;27;96744;-35
2022/06/29 16:52:30;;;;;;;2.25;1.27;;;;;;;27.01;41.63;101258.59;5077099;27;99341;-35
2022/06/29 16:54:56;;;;;;;1.02;0.75;;;;;;;26.88;42.29;101246.22;5076983;27;99259;-35
2022/06/29 16:57:21;;;;;;;1.75;1.10;;;;;;;26.90;42.39;101251.59;5077534;27;96691;-35